Supply, Virginia
Current Conditions -  °F | °C
As of 1:35 AM on Thursday 23 Oct 2014 (Local Time) from KXSA Reporting Station
Overcast Overcast  
Wind Chill: 54°   Ceiling: 4900
Heat Index: 54°   Visibility: 10mi
Dew Point: 40°   Wind: 10mph
Humidity: 60%   Direction: 290°WNW
Pressure: 29.92"   Gusts: 18mph
Location:  38.094°N, 77.0989°W
Report Text: KXSA 230535Z AUTO 29009G16KT 260V320 10SM OVC049 12/05 A2992 RMK AO2 LTG DSNT NE T01200045
Loading
Personal Weather Stations






























Interactive Weather Map
Tropical Storm Tracking
New forecast layout! Learn more

10-Day Weather Forecast

Advertisements
Track Severe Weather on mobile